createdAt,value
2023-03-17T00:02:08.415Z,7.89
2023-03-17T00:04:36.740Z,7.80
2023-03-17T00:07:06.515Z,7.85
2023-03-17T00:09:34.704Z,7.82
2023-03-17T00:12:04.122Z,7.92
2023-03-17T00:14:32.520Z,7.84
2023-03-17T00:17:00.981Z,7.73
2023-03-17T00:19:31.488Z,7.87
2023-03-17T00:22:01.046Z,7.79
2023-03-17T00:24:29.722Z,7.69
2023-03-17T00:26:58.144Z,7.81
2023-03-17T00:29:28.338Z,7.79
2023-03-17T00:31:59.004Z,7.77
2023-03-17T00:34:29.894Z,7.65
2023-03-17T00:37:01.219Z,7.84
2023-03-17T00:39:29.292Z,7.91
2023-03-17T00:41:57.319Z,7.74
2023-03-17T00:44:27.677Z,7.64
2023-03-17T00:46:57.913Z,7.71
2023-03-17T00:49:27.157Z,7.77
2023-03-17T00:51:55.556Z,7.68
2023-03-17T00:54:24.229Z,7.50
2023-03-17T00:56:54.047Z,7.67
2023-03-17T00:59:27.931Z,7.73
2023-03-17T01:01:58.439Z,7.64
2023-03-17T01:04:26.860Z,7.75
2023-03-17T01:06:55.782Z,7.71
2023-03-17T01:09:27.694Z,7.80
2023-03-17T01:11:56.840Z,7.86
2023-03-17T01:14:25.989Z,7.94
2023-03-17T01:16:55.305Z,7.92
2023-03-17T01:19:25.515Z,7.97
2023-03-17T01:21:53.939Z,7.94
2023-03-17T01:24:22.282Z,8.02
2023-03-17T01:26:51.018Z,7.96
2023-03-17T01:29:19.347Z,7.78
2023-03-17T01:31:47.799Z,7.92
2023-03-17T01:34:16.691Z,7.92
2023-03-17T01:36:46.838Z,7.94
2023-03-17T01:39:15.354Z,7.90
2023-03-17T01:41:43.878Z,8.06
2023-03-17T01:44:18.493Z,7.83
2023-03-17T01:46:47.906Z,7.96
2023-03-17T01:49:24.320Z,7.95
2023-03-17T01:51:59.073Z,7.93
2023-03-17T01:54:35.788Z,7.66
2023-03-17T01:57:09.371Z,7.69
2023-03-17T01:59:43.691Z,7.57
2023-03-17T02:02:16.834Z,7.47
2023-03-17T02:04:45.376Z,7.47
2023-03-17T02:07:15.674Z,7.53
2023-03-17T02:09:44.787Z,7.18
2023-03-17T02:12:13.901Z,7.25
2023-03-17T02:14:42.022Z,7.10
2023-03-17T02:17:10.411Z,7.07
2023-03-17T02:19:39.092Z,7.00
2023-03-17T02:22:09.297Z,7.12
2023-03-17T02:24:41.874Z,7.25
2023-03-17T02:27:13.612Z,7.22
2023-03-17T02:29:42.309Z,7.17
2023-03-17T02:32:11.222Z,7.17
2023-03-17T02:34:39.842Z,7.26
2023-03-17T02:37:09.919Z,6.96
2023-03-17T02:39:38.652Z,7.20
2023-03-17T02:42:07.812Z,7.18
2023-03-17T02:44:36.490Z,7.49
2023-03-17T02:47:04.810Z,7.32
2023-03-17T02:49:34.057Z,7.38
2023-03-17T02:52:02.902Z,7.30
2023-03-17T02:54:32.705Z,7.34
2023-03-17T02:57:01.331Z,7.18
2023-03-17T02:59:29.982Z,7.16
2023-03-17T03:01:58.296Z,7.13
2023-03-17T03:04:27.251Z,7.27
2023-03-17T03:06:57.188Z,7.24
2023-03-17T03:09:25.931Z,7.15
2023-03-17T03:11:55.851Z,7.35
2023-03-17T03:14:24.395Z,7.36
2023-03-17T03:16:52.904Z,7.41
2023-03-17T03:19:21.248Z,7.16
2023-03-17T03:21:49.374Z,7.43
2023-03-17T03:24:17.757Z,7.39
2023-03-17T03:26:46.065Z,7.52
2023-03-17T03:29:15.484Z,7.50
2023-03-17T03:31:43.730Z,7.53
2023-03-17T03:34:12.102Z,7.66
2023-03-17T03:36:40.216Z,7.79
2023-03-17T03:39:09.104Z,7.67
2023-03-17T03:41:37.299Z,7.69
2023-03-17T03:44:05.656Z,7.86
2023-03-17T03:46:35.739Z,7.71
2023-03-17T03:49:04.417Z,7.82
2023-03-17T03:51:32.830Z,7.83
2023-03-17T03:54:01.516Z,7.72
2023-03-17T03:56:29.668Z,7.66
2023-03-17T03:58:58.157Z,7.69
2023-03-17T04:01:27.310Z,7.77
2023-03-17T04:03:56.861Z,7.88
2023-03-17T04:06:25.562Z,7.96
2023-03-17T04:08:55.457Z,7.99
2023-03-17T04:11:26.002Z,7.92
2023-03-17T04:13:54.264Z,7.82
2023-03-17T04:16:22.561Z,8.00
2023-03-17T04:18:51.285Z,8.20
2023-03-17T04:21:21.722Z,8.09
2023-03-17T04:23:50.311Z,7.94
2023-03-17T04:26:19.140Z,8.09
2023-03-17T04:28:47.746Z,8.02
2023-03-17T04:31:15.973Z,7.69
2023-03-17T04:33:44.237Z,7.70
2023-03-17T04:36:19.716Z,7.50
2023-03-17T04:38:49.418Z,7.74
2023-03-17T04:41:17.967Z,7.52
2023-03-17T04:43:47.056Z,7.37
2023-03-17T04:46:16.452Z,7.34
2023-03-17T04:48:44.907Z,7.24
2023-03-17T04:51:13.535Z,7.22
2023-03-17T04:53:41.671Z,7.14
2023-03-17T04:56:11.266Z,7.05
2023-03-17T04:58:39.851Z,6.96
2023-03-17T05:01:08.654Z,6.90
2023-03-17T05:03:37.319Z,6.75
2023-03-17T05:06:07.500Z,6.85
2023-03-17T05:08:36.099Z,7.02
2023-03-17T05:11:04.972Z,7.02
2023-03-17T05:13:34.635Z,6.99
2023-03-17T05:16:02.763Z,6.86
2023-03-17T05:18:31.460Z,6.83
2023-03-17T05:21:00.339Z,7.03
2023-03-17T05:23:28.652Z,7.14
2023-03-17T05:25:57.045Z,7.19
2023-03-17T05:28:26.921Z,7.16
2023-03-17T05:30:56.842Z,7.20
2023-03-17T05:33:25.476Z,7.11
2023-03-17T05:35:54.114Z,6.94
2023-03-17T05:38:22.238Z,6.97
2023-03-17T05:40:52.999Z,7.01
2023-03-17T05:43:22.104Z,7.03
2023-03-17T05:45:50.872Z,7.03
2023-03-17T05:48:20.495Z,7.10
2023-03-17T05:50:49.451Z,7.05
2023-03-17T05:53:17.600Z,7.22
2023-03-17T05:55:45.867Z,7.41
2023-03-17T05:58:16.040Z,7.41
2023-03-17T06:00:44.146Z,7.39
2023-03-17T06:03:12.732Z,7.31
2023-03-17T06:05:42.587Z,7.18
2023-03-17T06:08:10.782Z,7.73
2023-03-17T06:10:38.986Z,7.67
2023-03-17T06:13:07.165Z,7.60
2023-03-17T06:15:36.366Z,7.39
2023-03-17T06:18:05.793Z,7.56
2023-03-17T06:20:37.411Z,7.55
2023-03-17T06:23:07.351Z,7.54
2023-03-17T06:25:37.084Z,7.62
2023-03-17T06:28:06.530Z,7.43
2023-03-17T06:30:37.546Z,7.43
2023-03-17T06:33:08.352Z,7.47
2023-03-17T06:35:36.630Z,7.54
2023-03-17T06:38:06.247Z,7.50
2023-03-17T06:40:34.887Z,7.66
2023-03-17T06:43:03.740Z,7.66
2023-03-17T06:45:35.767Z,7.56
2023-03-17T06:48:07.089Z,7.50
2023-03-17T06:50:35.387Z,7.31
2023-03-17T06:53:03.742Z,7.43
2023-03-17T06:55:34.008Z,7.53
2023-03-17T06:58:03.168Z,7.37
2023-03-17T07:00:31.987Z,7.34
2023-03-17T07:03:00.324Z,7.41
2023-03-17T07:05:28.536Z,7.33
2023-03-17T07:07:56.856Z,7.37
2023-03-17T07:10:25.597Z,7.36
2023-03-17T07:12:55.437Z,7.55
2023-03-17T07:15:24.295Z,7.59
2023-03-17T07:17:52.980Z,7.48
2023-03-17T07:20:21.721Z,7.37
2023-03-17T07:22:50.033Z,7.50
2023-03-17T07:25:18.517Z,7.41
2023-03-17T07:27:47.094Z,7.39
2023-03-17T07:30:19.381Z,7.04
2023-03-17T07:32:48.183Z,7.37
2023-03-17T07:35:16.744Z,7.67
2023-03-17T07:37:45.202Z,7.44
2023-03-17T07:40:14.115Z,7.42
2023-03-17T07:42:42.230Z,7.44
2023-03-17T07:45:11.058Z,7.54
2023-03-17T07:47:40.788Z,7.61
2023-03-17T07:50:10.844Z,7.42
2023-03-17T07:52:39.461Z,7.47
2023-03-17T07:55:10.684Z,7.56
2023-03-17T07:57:39.327Z,7.42
2023-03-17T08:00:10.518Z,7.57
2023-03-17T08:02:41.210Z,7.70
2023-03-17T08:05:11.487Z,7.93
2023-03-17T08:07:40.609Z,8.00
2023-03-17T08:10:09.823Z,8.01
2023-03-17T08:12:38.658Z,7.93
2023-03-17T08:15:07.914Z,7.88
2023-03-17T08:17:37.686Z,7.94
2023-03-17T08:20:09.992Z,7.84
2023-03-17T08:22:38.254Z,7.90
2023-03-17T08:25:07.168Z,8.04
2023-03-17T08:27:35.415Z,7.98
2023-03-17T08:30:04.309Z,7.95
2023-03-17T08:32:32.578Z,7.89
2023-03-17T08:35:01.604Z,7.92
2023-03-17T08:37:31.512Z,8.10
2023-03-17T08:40:01.355Z,8.01
2023-03-17T08:42:29.854Z,8.07
2023-03-17T08:44:58.546Z,7.95
2023-03-17T08:47:27.531Z,8.03
2023-03-17T08:49:56.694Z,7.96
2023-03-17T08:52:24.855Z,7.96
2023-03-17T08:54:54.638Z,7.97
2023-03-17T08:57:23.440Z,7.95
2023-03-17T08:59:53.511Z,8.04
2023-03-17T09:02:21.848Z,8.12
2023-03-17T09:04:50.396Z,7.96
2023-03-17T09:07:18.532Z,7.95
2023-03-17T09:09:46.828Z,8.06
2023-03-17T09:12:17.163Z,8.06
2023-03-17T09:14:46.905Z,8.07
2023-03-17T09:17:16.362Z,8.07
2023-03-17T09:19:44.897Z,8.07
2023-03-17T09:22:15.497Z,7.90
2023-03-17T09:24:44.482Z,7.99
2023-03-17T09:27:13.241Z,8.10
2023-03-17T09:29:43.579Z,8.14
2023-03-17T09:32:11.925Z,8.17
2023-03-17T09:34:40.222Z,8.06
2023-03-17T09:37:09.820Z,8.12
2023-03-17T09:39:38.197Z,8.20
2023-03-17T09:42:36.446Z,8.09
2023-03-17T09:45:16.840Z,7.77
2023-03-17T09:47:56.724Z,8.18
2023-03-17T09:50:28.400Z,8.20
2023-03-17T09:53:00.074Z,8.09
2023-03-17T09:55:32.635Z,8.14
2023-03-17T09:58:03.860Z,8.17
2023-03-17T10:00:34.988Z,8.12
2023-03-17T10:03:03.950Z,8.26
2023-03-17T10:05:36.289Z,8.27
2023-03-17T10:08:29.026Z,8.39
2023-03-17T10:11:03.232Z,8.33
2023-03-17T10:13:48.475Z,8.43
2023-03-17T10:16:23.400Z,8.54
2023-03-17T10:18:56.617Z,8.61
2023-03-17T10:21:29.863Z,8.62
2023-03-17T10:24:02.188Z,8.55
2023-03-17T10:26:34.538Z,8.50
2023-03-17T10:29:04.491Z,8.58
2023-03-17T10:31:35.874Z,8.89
2023-03-17T10:34:14.561Z,9.03
2023-03-17T10:36:45.128Z,9.04
2023-03-17T10:39:15.714Z,8.91
2023-03-17T10:41:55.402Z,8.86
2023-03-17T10:44:30.852Z,8.98
2023-03-17T10:47:00.902Z,8.67
2023-03-17T10:49:36.990Z,8.77
2023-03-17T10:52:08.909Z,8.93
2023-03-17T10:54:38.644Z,9.04
2023-03-17T10:57:10.734Z,9.18
2023-03-17T10:59:44.767Z,8.96
2023-03-17T11:02:25.541Z,8.86
2023-03-17T11:05:00.900Z,8.94
2023-03-17T11:07:32.478Z,9.19
2023-03-17T11:10:03.898Z,9.46
2023-03-17T11:12:40.090Z,9.21
2023-03-17T11:15:13.252Z,9.42
2023-03-17T11:17:52.817Z,9.62
2023-03-17T11:20:47.358Z,9.63
2023-03-17T11:23:34.143Z,9.71
2023-03-17T11:26:17.687Z,9.62
2023-03-17T11:28:51.834Z,9.60
2023-03-17T11:31:30.177Z,9.59
2023-03-17T11:34:08.754Z,9.58
2023-03-17T11:36:47.323Z,9.51
2023-03-17T11:39:18.499Z,9.60
2023-03-17T11:41:57.366Z,9.46
2023-03-17T11:44:55.479Z,9.64
2023-03-17T11:47:37.420Z,9.68
2023-03-17T11:50:17.726Z,9.77
2023-03-17T11:53:00.162Z,10.06
2023-03-17T11:55:37.936Z,10.14
2023-03-17T11:58:12.543Z,10.12
2023-03-17T12:00:46.812Z,10.11
2023-03-17T12:03:22.565Z,10.21
2023-03-17T12:05:58.270Z,10.40
2023-03-17T12:08:34.747Z,10.03
2023-03-17T12:11:08.528Z,10.19
2023-03-17T12:13:41.997Z,10.32
2023-03-17T12:16:14.526Z,10.15
2023-03-17T12:18:50.213Z,10.24
2023-03-17T12:21:27.190Z,10.38
2023-03-17T12:24:02.134Z,9.94
2023-03-17T12:26:37.556Z,10.32
2023-03-17T12:29:12.977Z,10.59
2023-03-17T12:31:49.004Z,10.61
2023-03-17T12:34:22.850Z,10.46
2023-03-17T12:36:53.531Z,10.56
2023-03-17T12:39:27.396Z,10.45
2023-03-17T12:42:26.570Z,10.51
2023-03-17T12:45:15.095Z,10.62
2023-03-17T12:47:56.813Z,10.54
2023-03-17T12:50:42.310Z,10.06
2023-03-17T12:53:29.701Z,10.40
2023-03-17T12:56:04.089Z,10.48
2023-03-17T12:58:37.117Z,10.45
2023-03-17T13:01:10.967Z,10.31
2023-03-17T13:03:58.384Z,10.63
2023-03-17T13:06:26.968Z,10.64
2023-03-17T13:08:56.903Z,10.24
2023-03-17T13:11:30.104Z,10.19
2023-03-17T13:14:15.626Z,10.33
2023-03-17T13:16:48.250Z,10.26
2023-03-17T13:19:20.232Z,10.25
2023-03-17T13:21:53.336Z,10.28
2023-03-17T13:24:41.925Z,10.29
2023-03-17T13:27:13.559Z,10.24
2023-03-17T13:29:47.483Z,10.45
2023-03-17T13:32:38.629Z,10.42
2023-03-17T13:35:20.014Z,10.43
2023-03-17T13:38:24.738Z,10.14
2023-03-17T13:41:15.930Z,10.25
2023-03-17T13:43:57.291Z,10.34
2023-03-17T13:46:36.545Z,10.44
2023-03-17T13:49:16.825Z,10.27
2023-03-17T13:51:59.580Z,10.40
2023-03-17T13:54:34.734Z,10.45
2023-03-17T13:57:30.280Z,10.30
2023-03-17T14:00:15.405Z,10.34
2023-03-17T14:02:47.332Z,10.37
2023-03-17T14:05:38.387Z,10.58
2023-03-17T14:08:21.105Z,10.53
2023-03-17T14:11:03.173Z,10.17
2023-03-17T14:13:54.992Z,10.33
2023-03-17T14:16:34.667Z,10.55
2023-03-17T14:19:31.436Z,10.01
2023-03-17T14:22:23.927Z,10.30
2023-03-17T14:25:01.248Z,10.36
2023-03-17T14:27:35.378Z,10.59
2023-03-17T14:30:17.622Z,10.45
2023-03-17T14:32:49.563Z,10.59
2023-03-17T14:35:17.892Z,10.56
2023-03-17T14:37:46.597Z,10.65
2023-03-17T14:40:23.858Z,10.49
2023-03-17T14:42:52.358Z,10.43
2023-03-17T14:45:29.971Z,10.56
2023-03-17T14:47:58.424Z,10.60
2023-03-17T14:50:29.252Z,10.68
2023-03-17T14:52:59.811Z,10.86
2023-03-17T14:55:37.203Z,10.79
2023-03-17T14:58:10.257Z,10.88
2023-03-17T15:00:45.741Z,10.76
2023-03-17T15:03:22.018Z,10.73
2023-03-17T15:05:51.618Z,10.80
2023-03-17T15:08:50.867Z,10.69
2023-03-17T15:11:25.605Z,10.35
2023-03-17T15:13:58.412Z,10.49
2023-03-17T15:16:31.246Z,10.26
2023-03-17T15:19:06.718Z,10.16
2023-03-17T15:21:40.469Z,10.24
2023-03-17T15:24:23.867Z,10.36
2023-03-17T15:26:59.864Z,10.25
2023-03-17T15:29:28.725Z,10.30
2023-03-17T15:32:12.441Z,10.20
2023-03-17T15:34:41.124Z,10.23
2023-03-17T15:37:17.735Z,10.35
2023-03-17T15:39:46.655Z,10.16
2023-03-17T15:42:15.568Z,10.26
2023-03-17T15:44:44.057Z,10.29
2023-03-17T15:47:16.746Z,10.22
2023-03-17T15:49:45.792Z,10.12
2023-03-17T15:52:18.662Z,10.08
2023-03-17T15:54:47.599Z,9.91
2023-03-17T15:57:19.196Z,10.01
2023-03-17T15:59:48.359Z,9.95
2023-03-17T16:02:30.750Z,9.91
2023-03-17T16:05:01.729Z,9.86
2023-03-17T16:07:31.034Z,9.71
2023-03-17T16:09:59.416Z,9.82
2023-03-17T16:12:29.634Z,9.73
2023-03-17T16:14:58.225Z,9.66
2023-03-17T16:17:32.254Z,9.75
2023-03-17T16:20:01.374Z,9.84
2023-03-17T16:22:42.100Z,9.78
2023-03-17T16:25:22.089Z,9.89
2023-03-17T16:27:50.576Z,10.00
2023-03-17T16:30:20.817Z,9.91
2023-03-17T16:32:51.493Z,9.75
2023-03-17T16:35:21.012Z,9.79
2023-03-17T16:37:52.486Z,9.84
2023-03-17T16:40:24.143Z,9.83
2023-03-17T16:42:53.907Z,9.81
2023-03-17T16:45:27.980Z,9.77
2023-03-17T16:47:58.495Z,9.96
2023-03-17T16:50:30.330Z,9.83
2023-03-17T16:52:59.912Z,9.62
2023-03-17T16:55:30.188Z,9.64
2023-03-17T16:58:02.843Z,9.83
2023-03-17T17:00:32.657Z,9.75
2023-03-17T17:03:02.447Z,9.73
2023-03-17T17:05:32.502Z,9.81
2023-03-17T17:08:01.229Z,9.66
2023-03-17T17:10:32.550Z,9.60
2023-03-17T17:13:01.402Z,9.56
2023-03-17T17:15:31.195Z,9.34
2023-03-17T17:18:06.954Z,9.30
2023-03-17T17:20:38.614Z,9.42
2023-03-17T17:23:08.524Z,9.38
2023-03-17T17:25:36.828Z,9.37
2023-03-17T17:28:05.646Z,9.57
2023-03-17T17:30:34.442Z,9.64
2023-03-17T17:33:05.373Z,9.53
2023-03-17T17:35:34.648Z,9.52
2023-03-17T17:38:06.433Z,9.45
2023-03-17T17:40:35.109Z,9.42
2023-03-17T17:43:03.684Z,9.51
2023-03-17T17:45:33.060Z,9.54
2023-03-17T17:48:01.235Z,9.52
2023-03-17T17:50:31.850Z,9.61
2023-03-17T17:53:05.390Z,9.70
2023-03-17T17:55:35.136Z,9.84
2023-03-17T17:58:03.812Z,9.89
2023-03-17T18:00:32.953Z,9.92
2023-03-17T18:03:04.192Z,9.78
2023-03-17T18:05:34.092Z,9.56
2023-03-17T18:08:02.520Z,9.62
2023-03-17T18:10:32.031Z,9.60
2023-03-17T18:13:00.941Z,9.72
2023-03-17T18:15:29.421Z,9.61
2023-03-17T18:17:57.926Z,9.43
2023-03-17T18:20:27.278Z,9.53
2023-03-17T18:22:59.819Z,9.44
2023-03-17T18:25:31.311Z,9.49
2023-03-17T18:28:01.402Z,9.47
2023-03-17T18:30:35.150Z,9.44
2023-03-17T18:33:07.767Z,9.46
2023-03-17T18:35:36.783Z,9.41
2023-03-17T18:38:06.454Z,9.63
2023-03-17T18:40:34.987Z,9.67
2023-03-17T18:43:03.507Z,9.78
2023-03-17T18:45:31.715Z,9.77
2023-03-17T18:47:59.901Z,9.75
2023-03-17T18:50:29.157Z,9.79
2023-03-17T18:52:57.580Z,9.74
2023-03-17T18:55:29.153Z,9.72
2023-03-17T18:57:58.250Z,9.65
2023-03-17T19:00:27.497Z,9.83
2023-03-17T19:02:55.630Z,9.78
2023-03-17T19:05:24.696Z,9.74
2023-03-17T19:07:53.753Z,9.78
2023-03-17T19:10:23.153Z,9.81
2023-03-17T19:12:59.525Z,9.84
2023-03-17T19:15:29.718Z,10.01
2023-03-17T19:17:58.693Z,9.89
2023-03-17T19:20:27.532Z,9.79
2023-03-17T19:22:57.039Z,9.93
2023-03-17T19:25:25.657Z,9.84
2023-03-17T19:27:56.587Z,9.96
2023-03-17T19:30:24.892Z,9.89
2023-03-17T19:32:53.210Z,9.80
2023-03-17T19:35:22.486Z,9.83
2023-03-17T19:37:50.952Z,9.96
2023-03-17T19:40:20.708Z,10.19
2023-03-17T19:42:49.335Z,10.19
2023-03-17T19:45:19.081Z,10.40
2023-03-17T19:47:47.283Z,10.43
2023-03-17T19:50:16.318Z,10.44
2023-03-17T19:52:46.046Z,10.35
2023-03-17T19:55:14.204Z,10.26
2023-03-17T19:57:42.954Z,10.15
2023-03-17T20:00:13.006Z,10.29
2023-03-17T20:02:46.352Z,10.44
2023-03-17T20:05:14.880Z,10.43
2023-03-17T20:07:43.563Z,10.55
2023-03-17T20:10:14.350Z,10.26
2023-03-17T20:12:45.788Z,10.57
2023-03-17T20:15:16.562Z,10.51
2023-03-17T20:17:46.746Z,10.54
2023-03-17T20:20:15.493Z,10.53
2023-03-17T20:22:44.139Z,10.51
2023-03-17T20:25:17.545Z,10.50
2023-03-17T20:27:46.119Z,10.43
2023-03-17T20:30:15.365Z,10.54
2023-03-17T20:32:44.594Z,10.46
2023-03-17T20:35:14.525Z,10.55
2023-03-17T20:37:42.657Z,10.33
2023-03-17T20:40:12.210Z,10.53
2023-03-17T20:42:40.617Z,10.45
2023-03-17T20:45:09.229Z,10.55
2023-03-17T20:47:37.672Z,10.68
2023-03-17T20:50:08.742Z,10.73
2023-03-17T20:52:38.358Z,10.75
2023-03-17T20:55:07.135Z,10.79
2023-03-17T20:57:38.202Z,10.97
2023-03-17T21:00:08.236Z,10.61
2023-03-17T21:02:36.574Z,10.67
2023-03-17T21:05:05.246Z,10.70
2023-03-17T21:07:33.889Z,10.84
2023-03-17T21:10:03.452Z,10.82
2023-03-17T21:12:31.947Z,10.88
2023-03-17T21:15:00.774Z,11.04
2023-03-17T21:17:29.092Z,11.04
2023-03-17T21:19:58.540Z,11.06
2023-03-17T21:22:27.302Z,11.04
2023-03-17T21:24:55.701Z,10.85
2023-03-17T21:27:25.654Z,10.88
2023-03-17T21:29:54.009Z,10.88
2023-03-17T21:32:22.295Z,10.91
2023-03-17T21:34:51.013Z,10.87
2023-03-17T21:37:19.313Z,10.81
2023-03-17T21:39:47.515Z,10.58
2023-03-17T21:42:16.176Z,10.98
2023-03-17T21:44:48.307Z,11.07
2023-03-17T21:47:17.112Z,11.04
2023-03-17T21:49:47.796Z,10.95
2023-03-17T21:52:16.076Z,11.02
2023-03-17T21:54:44.556Z,11.24
2023-03-17T21:57:13.474Z,11.04
2023-03-17T21:59:42.413Z,11.26
2023-03-17T22:02:14.068Z,11.31
2023-03-17T22:04:42.192Z,11.35
2023-03-17T22:07:13.626Z,11.30
2023-03-17T22:09:42.075Z,11.29
2023-03-17T22:12:11.109Z,11.05
2023-03-17T22:14:39.468Z,11.06
2023-03-17T22:17:08.508Z,11.13
2023-03-17T22:19:38.375Z,11.08
2023-03-17T22:22:06.743Z,11.24
2023-03-17T22:24:35.091Z,11.30
2023-03-17T22:27:03.242Z,11.10
2023-03-17T22:29:32.482Z,11.35
2023-03-17T22:32:02.512Z,10.95
2023-03-17T22:34:30.815Z,11.17
2023-03-17T22:37:00.498Z,11.15
2023-03-17T22:39:29.504Z,11.00
2023-03-17T22:41:57.920Z,11.12
2023-03-17T22:44:26.641Z,11.16
2023-03-17T22:46:55.444Z,11.22
2023-03-17T22:49:23.761Z,11.22
2023-03-17T22:51:52.068Z,11.25
2023-03-17T22:54:22.134Z,11.22
2023-03-17T22:56:50.592Z,11.16
2023-03-17T22:59:18.805Z,11.13
2023-03-17T23:01:47.127Z,11.06
2023-03-17T23:04:15.334Z,11.09
2023-03-17T23:06:43.857Z,11.13
2023-03-17T23:09:12.825Z,11.19
2023-03-17T23:11:42.782Z,11.05
2023-03-17T23:14:11.563Z,11.13
2023-03-17T23:16:39.907Z,11.25
2023-03-17T23:19:07.948Z,11.31
2023-03-17T23:21:38.838Z,11.35
2023-03-17T23:24:08.742Z,11.22
2023-03-17T23:26:37.818Z,11.01
2023-03-17T23:29:09.674Z,11.25
2023-03-17T23:31:38.391Z,11.54
2023-03-17T23:34:07.295Z,11.44
2023-03-17T23:36:40.352Z,11.15
2023-03-17T23:39:09.809Z,11.15
2023-03-17T23:41:38.278Z,11.27
2023-03-17T23:44:08.316Z,11.16
2023-03-17T23:46:36.740Z,11.18
2023-03-17T23:49:05.054Z,11.29
2023-03-17T23:51:33.884Z,11.31
2023-03-17T23:54:02.203Z,11.32
2023-03-17T23:56:30.819Z,11.20
2023-03-17T23:58:59.295Z,11.16
